Impacts METAR Board
IDs:

KBOS - Boston/Logan Intl, MA, US

Updated at: 2200 UTC 19 Jul 2018
Potential Impact None Slight Moderate High
Time 19/10Z 19/11Z 19/12Z 19/13Z 19/14Z 19/15Z 19/16Z 19/17Z 19/18Z 19/19Z 19/20Z 19/21Z 19/22Z
Temp65 66 70 74 75 75 74 75 76 75 75 74
Dewpt49 49 48 47 47 51 48 49 48 52 50 49
Altim30.05 30.06 30.07 30.08 30.09 30.10 30.10 30.09 30.09 30.08 30.07 30.07
VIS10 10 10 10 10 10 10 10 10 10 10 10
CIG-- -- -- -- -- -- -- -- -- -- -- --
CoverCLRCLRCLRCLRCLRCLRFEWFEWFEWFEWFEWFEW
FltCatVFRVFRVFRVFRVFRVFRVFRVFRVFRVFRVFRVFR
WX------------------------
WDir32032034036050120130120110100110100
WSpd9 8 6 6 6 9 9 9 12 12 12 11
WGst-- -- -- -- -- -- -- -- -- -- -- --
Raw hourly METARs
KBOS 190954Z 32009KT 10SM CLR 18/09 A3005 RMK AO2 SLP176 T01830094
KBOS 191054Z 32008KT 10SM CLR 19/09 A3006 RMK AO2 SLP179 T01890094
KBOS 191154Z 34006KT 10SM CLR 21/09 A3007 RMK AO2 SLP182 T02110089 10211 20183 51012
KBOS 191254Z 36006KT 10SM CLR 23/08 A3008 RMK AO2 SLP185 T02330083
KBOS 191354Z 05006KT 10SM CLR 24/08 A3009 RMK AO2 SLP188 T02390083
KBOS 191454Z 12009KT 10SM CLR 24/11 A3010 RMK AO2 SLP191 T02390106 53008
KBOS 191554Z 13009KT 10SM FEW050 23/09 A3010 RMK AO2 SLP191 T02330089
KBOS 191654Z 12009KT 10SM FEW050 24/09 A3009 RMK AO2 SLP190 T02390094
KBOS 191754Z 11012KT 10SM FEW050 24/09 A3009 RMK AO2 SLP187 T02440089 10250 20217 58004
KBOS 191854Z 10012KT 10SM FEW045 24/11 A3008 RMK AO2 SLP184 T02390111
KBOS 191954Z 11012KT 10SM FEW045 24/10 A3007 RMK AO2 SLP182 T02390100

KBOS 192154Z 10011KT 10SM FEW045 FEW200 23/09 A3007 RMK AO2 SLP180 T02330094



Page loaded:  22:40 UTC  |   03:40 PM Pacific  |   04:40 PM Mountain  |   05:40 PM Central  |   06:40 PM Eastern

 

ADVISORIES

FORECASTS

FORECASTS

OBSERVATIONS

USER TOOLS

ABOUT US